createdAt,value
2023-05-21T00:00:18.623Z,7.50
2023-05-21T00:03:22.824Z,7.45
2023-05-21T00:06:29.407Z,7.45
2023-05-21T00:09:33.991Z,7.38
2023-05-21T00:12:42.803Z,7.20
2023-05-21T00:15:57.962Z,7.37
2023-05-21T00:19:10.704Z,7.10
2023-05-21T00:22:16.991Z,6.93
2023-05-21T00:25:25.083Z,6.88
2023-05-21T00:28:28.475Z,7.60
2023-05-21T00:31:37.500Z,6.80
2023-05-21T00:34:41.061Z,6.93
2023-05-21T00:37:44.139Z,6.85
2023-05-21T00:40:47.088Z,6.82
2023-05-21T00:43:53.535Z,6.73
2023-05-21T00:46:56.933Z,6.73
2023-05-21T00:50:05.207Z,6.57
2023-05-21T00:53:12.609Z,6.93
2023-05-21T00:56:15.457Z,6.50
2023-05-21T00:59:19.038Z,6.60
2023-05-21T01:02:24.686Z,6.57
2023-05-21T01:05:36.963Z,7.18
2023-05-21T01:08:41.161Z,7.10
2023-05-21T01:11:47.715Z,7.15
2023-05-21T01:14:54.980Z,6.87
2023-05-21T01:17:57.912Z,6.97
2023-05-21T01:21:01.130Z,6.88
2023-05-21T01:24:06.051Z,6.75
2023-05-21T01:27:10.775Z,6.60
2023-05-21T01:30:16.502Z,6.60
2023-05-21T01:33:31.702Z,6.90
2023-05-21T01:36:42.698Z,7.57
2023-05-21T01:40:00.619Z,6.55
2023-05-21T01:43:06.256Z,7.00
2023-05-21T01:46:13.371Z,6.77
2023-05-21T01:49:18.552Z,6.73
2023-05-21T01:52:21.612Z,7.15
2023-05-21T01:55:29.518Z,6.55
2023-05-21T01:58:32.484Z,6.68
2023-05-21T02:01:35.593Z,6.83
2023-05-21T02:04:41.607Z,6.83
2023-05-21T02:07:50.195Z,6.50
2023-05-21T02:10:53.576Z,6.80
2023-05-21T02:13:57.880Z,6.63
2023-05-21T02:17:01.165Z,7.60
2023-05-21T02:20:13.037Z,6.93
2023-05-21T02:23:16.015Z,7.07
2023-05-21T02:26:19.601Z,6.72
2023-05-21T02:29:22.690Z,6.72
2023-05-21T02:32:31.694Z,6.87
2023-05-21T02:35:34.631Z,6.10
2023-05-21T02:38:41.668Z,7.20
2023-05-21T02:41:45.004Z,7.03
2023-05-21T02:44:51.908Z,7.10
2023-05-21T02:47:58.141Z,7.57
2023-05-21T02:51:01.847Z,7.33
2023-05-21T02:54:11.736Z,7.30
2023-05-21T02:57:29.754Z,7.15
2023-05-21T03:01:19.256Z,7.35
2023-05-21T03:08:58.806Z,7.10
2023-05-21T04:17:01.648Z,6.80
2023-05-21T04:34:02.422Z,6.40
2023-05-21T04:41:25.350Z,5.93
2023-05-21T04:45:15.804Z,6.55
2023-05-21T04:52:27.931Z,6.03
2023-05-21T05:04:15.569Z,4.90
2023-05-21T05:16:07.769Z,5.07
2023-05-21T05:24:23.107Z,4.97
2023-05-21T05:32:29.909Z,4.43
2023-05-21T05:35:57.966Z,4.77
2023-05-21T05:39:28.243Z,4.43
2023-05-21T05:43:44.794Z,4.25
2023-05-21T06:00:06.147Z,4.85
2023-05-21T06:07:52.928Z,4.32
2023-05-21T06:12:19.144Z,4.70
2023-05-21T06:16:03.172Z,5.03
2023-05-21T06:19:33.471Z,5.15
2023-05-21T06:27:22.652Z,5.40
2023-05-21T06:44:20.368Z,4.32
2023-05-21T06:48:09.743Z,4.93
2023-05-21T06:51:54.166Z,4.27
2023-05-21T06:56:13.786Z,4.50
2023-05-21T07:26:11.305Z,4.40
2023-05-21T07:33:52.215Z,4.87
2023-05-21T07:40:41.110Z,4.18
2023-05-21T07:44:16.454Z,4.82
2023-05-21T07:48:18.993Z,4.97
2023-05-21T07:55:28.991Z,4.63
2023-05-21T07:58:41.452Z,4.70
2023-05-21T08:02:03.594Z,4.22
2023-05-21T08:05:31.398Z,4.20
2023-05-21T08:08:55.592Z,4.20
2023-05-21T08:12:18.625Z,4.80
2023-05-21T08:15:52.854Z,4.95
2023-05-21T08:19:13.997Z,4.57
2023-05-21T08:23:00.540Z,4.30
2023-05-21T08:26:11.275Z,4.60
2023-05-21T08:29:19.507Z,4.47
2023-05-21T08:32:31.912Z,3.90
2023-05-21T08:36:00.529Z,4.90
2023-05-21T08:39:14.432Z,4.82
2023-05-21T08:42:52.241Z,4.40
2023-05-21T08:46:10.562Z,4.80
2023-05-21T08:49:37.555Z,4.57
2023-05-21T08:52:59.297Z,4.38
2023-05-21T08:56:16.755Z,4.50
2023-05-21T08:59:25.970Z,4.00
2023-05-21T09:02:41.227Z,4.40
2023-05-21T09:05:53.232Z,4.80
2023-05-21T09:10:02.698Z,5.18
2023-05-21T09:13:12.527Z,3.55
2023-05-21T09:16:30.371Z,4.30
2023-05-21T09:20:24.477Z,4.37
2023-05-21T09:27:12.066Z,3.85
2023-05-21T09:30:37.240Z,3.90
2023-05-21T09:33:49.729Z,4.30
2023-05-21T09:40:40.402Z,5.10
2023-05-21T09:44:10.183Z,3.90
2023-05-21T09:47:28.826Z,4.50
2023-05-21T09:50:53.676Z,4.10
2023-05-21T09:54:05.254Z,3.87
2023-05-21T09:58:13.826Z,4.35
2023-05-21T10:01:23.581Z,3.92
2023-05-21T10:07:57.952Z,4.10
2023-05-21T10:11:10.123Z,4.23
2023-05-21T10:14:26.712Z,3.97
2023-05-21T10:17:37.380Z,4.47
2023-05-21T10:20:47.185Z,3.75
2023-05-21T10:23:53.120Z,4.60
2023-05-21T10:26:58.239Z,4.13
2023-05-21T10:30:13.596Z,4.57
2023-05-21T10:33:18.736Z,3.88
2023-05-21T10:36:28.140Z,4.13
2023-05-21T10:39:42.170Z,3.93
2023-05-21T10:42:56.696Z,4.63
2023-05-21T10:46:29.911Z,3.83
2023-05-21T10:50:07.852Z,4.13
2023-05-21T10:53:53.073Z,3.92
2023-05-21T10:57:36.055Z,3.90
2023-05-21T11:00:58.074Z,4.00
2023-05-21T11:04:36.492Z,4.18
2023-05-21T11:08:47.004Z,4.78
2023-05-21T11:12:18.906Z,3.78
2023-05-21T11:20:02.605Z,3.60
2023-05-21T11:24:12.806Z,4.28
2023-05-21T11:31:45.543Z,4.50
2023-05-21T11:35:11.944Z,4.40
2023-05-21T11:38:19.697Z,4.13
2023-05-21T11:41:31.958Z,3.90
2023-05-21T11:44:54.985Z,4.40
2023-05-21T11:48:07.754Z,4.65
2023-05-21T11:51:32.618Z,4.40
2023-05-21T11:54:57.947Z,4.10
2023-05-21T11:58:31.485Z,4.20
2023-05-21T12:01:52.030Z,4.95
2023-05-21T12:05:44.265Z,4.70
2023-05-21T12:51:07.963Z,4.43
2023-05-21T13:14:42.078Z,4.57
2023-05-21T13:26:26.543Z,4.18
2023-05-21T13:35:26.756Z,4.65
2023-05-21T13:39:09.822Z,4.70
2023-05-21T13:42:57.417Z,4.80
2023-05-21T13:47:28.477Z,4.57
2023-05-21T13:56:02.337Z,4.97
2023-05-21T14:00:08.549Z,4.63
2023-05-21T14:04:00.645Z,4.17
2023-05-21T14:07:32.071Z,4.63
2023-05-21T14:10:57.911Z,4.90
2023-05-21T14:14:33.373Z,4.60
2023-05-21T14:21:32.947Z,4.80
2023-05-21T14:25:06.624Z,4.80
2023-05-21T14:28:16.149Z,4.50
2023-05-21T14:31:25.314Z,4.25
2023-05-21T14:34:39.472Z,4.33
2023-05-21T14:37:50.933Z,4.60
2023-05-21T14:40:57.489Z,4.90
2023-05-21T14:44:07.726Z,3.88
2023-05-21T14:47:58.207Z,4.63
2023-05-21T14:51:21.925Z,4.53
2023-05-21T14:54:45.562Z,4.73
2023-05-21T14:58:02.864Z,4.50
2023-05-21T15:01:09.456Z,4.72
2023-05-21T15:04:16.896Z,4.88
2023-05-21T15:07:27.645Z,4.70
2023-05-21T15:10:40.471Z,4.50
2023-05-21T15:13:54.066Z,4.70
2023-05-21T15:16:57.658Z,4.75
2023-05-21T15:20:06.875Z,4.97
2023-05-21T15:26:20.489Z,4.63
2023-05-21T15:29:23.461Z,4.95
2023-05-21T15:32:28.283Z,4.00
2023-05-21T15:35:31.613Z,4.50
2023-05-21T15:38:34.840Z,5.47
2023-05-21T15:41:38.622Z,4.37
2023-05-21T15:44:43.552Z,4.60
2023-05-21T15:47:50.038Z,4.47
2023-05-21T15:50:56.139Z,4.50
2023-05-21T15:54:00.059Z,4.63
2023-05-21T15:57:07.519Z,4.43
2023-05-21T16:00:11.208Z,5.05
2023-05-21T16:03:14.449Z,5.25
2023-05-21T16:06:17.243Z,4.20
2023-05-21T16:09:20.021Z,4.40
2023-05-21T16:12:22.980Z,4.40
2023-05-21T16:15:25.954Z,4.03
2023-05-21T16:18:29.854Z,4.00
2023-05-21T16:21:33.334Z,4.15
2023-05-21T16:24:36.312Z,4.43
2023-05-21T16:27:39.180Z,4.17
2023-05-21T16:30:42.149Z,4.32
2023-05-21T16:33:45.128Z,5.00
2023-05-21T16:36:48.707Z,4.30
2023-05-21T16:39:54.990Z,4.27
2023-05-21T16:43:02.337Z,4.10
2023-05-21T16:46:07.194Z,4.40
2023-05-21T16:49:11.345Z,4.32
2023-05-21T16:52:20.053Z,4.35
2023-05-21T16:55:23.334Z,4.47
2023-05-21T16:58:27.739Z,4.67
2023-05-21T17:01:31.433Z,4.40
2023-05-21T17:04:37.768Z,4.50
2023-05-21T17:07:49.453Z,3.97
2023-05-21T17:10:53.957Z,5.30
2023-05-21T17:13:57.653Z,4.47
2023-05-21T17:17:09.441Z,4.40
2023-05-21T17:20:16.885Z,4.85
2023-05-21T17:23:20.537Z,4.60
2023-05-21T17:26:27.828Z,3.97
2023-05-21T17:30:00.474Z,4.67
2023-05-21T17:37:07.618Z,5.18
2023-05-21T17:38:10.675Z,4.80
2023-05-21T17:46:04.800Z,5.20
2023-05-21T17:55:57.171Z,4.80
2023-05-21T17:59:54.785Z,5.10
2023-05-21T18:07:44.708Z,5.17
2023-05-21T18:11:08.353Z,5.63
2023-05-21T18:14:48.875Z,4.88
2023-05-21T18:25:26.724Z,5.27
2023-05-21T18:28:38.188Z,5.10
2023-05-21T18:35:17.593Z,5.40
2023-05-21T18:38:48.416Z,5.40
2023-05-21T18:42:13.063Z,5.60
2023-05-21T18:45:34.257Z,5.57
2023-05-21T18:52:54.594Z,5.47
2023-05-21T18:56:15.375Z,5.97
2023-05-21T19:00:06.358Z,5.70
2023-05-21T19:03:36.235Z,5.83
2023-05-21T19:11:00.670Z,5.93
2023-05-21T19:14:34.047Z,6.38
2023-05-21T19:18:14.360Z,6.27
2023-05-21T19:35:28.969Z,6.78
2023-05-21T19:39:15.224Z,6.03
2023-05-21T19:42:39.976Z,6.40
2023-05-21T19:46:02.809Z,7.28
2023-05-21T19:49:21.328Z,7.15
2023-05-21T19:52:31.365Z,7.28
2023-05-21T19:55:39.455Z,7.03
2023-05-21T19:59:00.436Z,7.73
2023-05-21T20:02:20.196Z,6.78
2023-05-21T20:05:44.854Z,7.60
2023-05-21T20:09:11.774Z,7.63
2023-05-21T20:12:21.007Z,7.93
2023-05-21T20:15:36.144Z,8.50
2023-05-21T20:18:52.223Z,7.75
2023-05-21T20:25:32.755Z,7.68
2023-05-21T20:28:57.258Z,8.00
2023-05-21T20:32:14.820Z,7.57
2023-05-21T20:35:27.813Z,7.63
2023-05-21T20:38:46.139Z,7.60
2023-05-21T20:42:10.916Z,8.25
2023-05-21T20:46:14.706Z,8.00
2023-05-21T20:50:32.537Z,7.90
2023-05-21T21:15:55.531Z,8.05
2023-05-21T21:29:42.025Z,8.03
2023-05-21T22:13:01.549Z,7.03
2023-05-21T22:20:44.802Z,6.83
2023-05-21T22:24:32.399Z,6.85
2023-05-21T22:27:43.546Z,7.07
2023-05-21T22:31:01.907Z,7.07
2023-05-21T22:34:14.259Z,7.37
2023-05-21T22:37:50.593Z,6.83
2023-05-21T22:41:55.783Z,7.32
2023-05-21T22:45:25.071Z,6.75
2023-05-21T22:48:46.958Z,6.93
2023-05-21T22:51:56.896Z,7.27
2023-05-21T22:55:04.386Z,7.10
2023-05-21T22:58:24.837Z,6.88
2023-05-21T23:01:39.149Z,6.90
2023-05-21T23:04:53.639Z,7.53
2023-05-21T23:08:09.273Z,7.00
2023-05-21T23:11:19.508Z,7.17
2023-05-21T23:14:40.484Z,7.40
2023-05-21T23:17:47.502Z,7.40
2023-05-21T23:20:57.735Z,7.07
2023-05-21T23:27:27.273Z,6.70
2023-05-21T23:30:39.586Z,6.75
2023-05-21T23:33:55.433Z,7.18
2023-05-21T23:37:04.340Z,7.30
2023-05-21T23:40:19.415Z,7.57
2023-05-21T23:43:46.410Z,7.20
2023-05-21T23:47:14.550Z,6.53
2023-05-21T23:50:47.202Z,6.63
2023-05-21T23:54:18.721Z,6.85
2023-05-21T23:57:40.014Z,5.80
